createdAt,value
2016-07-02T00:00:14.971Z,15.45
2016-07-02T00:01:14.943Z,15.47
2016-07-02T00:02:15.092Z,15.38
2016-07-02T00:03:15.065Z,15.41
2016-07-02T00:04:15.081Z,15.3
2016-07-02T00:05:15.193Z,15.34
2016-07-02T00:06:15.115Z,15.26
2016-07-02T00:07:15.103Z,15.23
2016-07-02T00:08:15.096Z,15.22
2016-07-02T00:09:15.006Z,15.16
2016-07-02T00:10:15.083Z,15.1
2016-07-02T00:11:15.105Z,15.08
2016-07-02T00:12:15.202Z,15.05
2016-07-02T00:13:15.559Z,15.04
2016-07-02T00:14:14.901Z,15.02
2016-07-02T00:15:15.052Z,15.04
2016-07-02T00:16:15.095Z,14.94
2016-07-02T00:17:15.887Z,14.98
2016-07-02T00:18:14.913Z,14.97
2016-07-02T00:19:15.094Z,15
2016-07-02T00:20:15.051Z,14.98
2016-07-02T00:21:14.971Z,14.9
2016-07-02T00:22:15.005Z,14.86
2016-07-02T00:23:14.813Z,14.8
2016-07-02T00:24:14.873Z,14.82
2016-07-02T00:25:15.020Z,14.86
2016-07-02T00:26:14.894Z,14.8
2016-07-02T00:27:14.874Z,14.85
2016-07-02T00:28:15.039Z,14.83
2016-07-02T00:29:15.172Z,14.86
2016-07-02T00:30:16.768Z,14.79
2016-07-02T00:31:15.019Z,14.8
2016-07-02T00:32:14.846Z,14.79
2016-07-02T00:33:14.870Z,14.7
2016-07-02T00:34:14.875Z,14.74
2016-07-02T00:35:15.003Z,14.67
2016-07-02T00:36:15.119Z,14.71
2016-07-02T00:37:14.852Z,14.74
2016-07-02T00:38:14.923Z,14.79
2016-07-02T00:39:14.823Z,14.74
2016-07-02T00:40:15.134Z,14.7
2016-07-02T00:41:14.964Z,14.66
2016-07-02T00:42:14.935Z,14.66
2016-07-02T00:43:15.043Z,14.66
2016-07-02T00:44:14.838Z,14.66
2016-07-02T00:45:14.956Z,14.6
2016-07-02T00:46:14.819Z,14.63
2016-07-02T00:47:15.721Z,14.66
2016-07-02T00:48:15.451Z,14.63
2016-07-02T00:49:14.844Z,14.69
2016-07-02T00:50:15.074Z,14.63
2016-07-02T00:51:15.076Z,14.7
2016-07-02T00:52:15.092Z,14.8
2016-07-02T00:53:14.945Z,14.8
2016-07-02T00:54:14.972Z,14.89
2016-07-02T00:55:14.771Z,14.83
2016-07-02T00:56:14.789Z,14.87
2016-07-02T00:57:14.700Z,14.98
2016-07-02T00:58:14.909Z,14.9
2016-07-02T00:59:14.802Z,15.01
2016-07-02T01:00:14.786Z,15.13
2016-07-02T01:01:14.757Z,15.04
2016-07-02T01:02:14.897Z,15.07
2016-07-02T01:03:14.732Z,15.05
2016-07-02T01:04:14.941Z,15.02
2016-07-02T01:05:14.998Z,15.16
2016-07-02T01:06:14.725Z,15.1
2016-07-02T01:07:14.926Z,15.08
2016-07-02T01:08:14.738Z,15.22
2016-07-02T01:09:14.681Z,15.22
2016-07-02T01:10:14.845Z,15.26
2016-07-02T01:11:14.653Z,15.31
2016-07-02T01:12:14.743Z,15.41
2016-07-02T01:13:14.866Z,15.35
2016-07-02T01:14:14.733Z,15.44
2016-07-02T01:15:15.400Z,15.43
2016-07-02T01:16:14.739Z,15.44
2016-07-02T01:17:14.870Z,15.44
2016-07-02T01:18:14.894Z,15.43
2016-07-02T01:19:15.821Z,15.41
2016-07-02T01:20:14.912Z,15.37
2016-07-02T01:21:14.895Z,15.41
2016-07-02T01:22:14.862Z,15.37
2016-07-02T01:23:14.884Z,15.44
2016-07-02T01:24:14.912Z,15.47
2016-07-02T01:25:14.772Z,15.41
2016-07-02T01:26:16.399Z,15.43
2016-07-02T01:27:14.938Z,15.43
2016-07-02T01:28:14.700Z,15.41
2016-07-02T01:29:14.657Z,15.41
2016-07-02T01:30:14.912Z,15.43
2016-07-02T01:31:14.818Z,15.44
2016-07-02T01:32:14.834Z,15.37
2016-07-02T01:33:14.788Z,15.35
2016-07-02T01:34:14.646Z,15.4
2016-07-02T01:35:14.662Z,15.35
2016-07-02T01:36:14.656Z,15.27
2016-07-02T01:37:14.658Z,15.35
2016-07-02T01:38:14.631Z,15.35
2016-07-02T01:39:15.000Z,15.38
2016-07-02T01:40:14.838Z,15.41
2016-07-02T01:41:14.900Z,15.44
2016-07-02T01:42:14.883Z,15.43
2016-07-02T01:43:14.767Z,15.52
2016-07-02T01:44:14.619Z,15.58
2016-07-02T01:45:14.558Z,15.55
2016-07-02T01:46:14.698Z,15.62
2016-07-02T01:47:14.631Z,15.7
2016-07-02T01:48:15.352Z,15.65
2016-07-02T01:49:14.637Z,15.77
2016-07-02T01:50:14.771Z,15.81
2016-07-02T01:51:14.768Z,15.92
2016-07-02T01:52:14.849Z,15.83
2016-07-02T01:53:14.622Z,15.93
2016-07-02T01:54:15.420Z,15.99
2016-07-02T01:55:14.593Z,15.99
2016-07-02T01:56:14.823Z,16.04
2016-07-02T01:57:14.604Z,16.04
2016-07-02T01:58:14.608Z,16.07
2016-07-02T01:59:15.456Z,16.14
2016-07-02T02:00:14.556Z,16.18
2016-07-02T02:01:14.607Z,16.18
2016-07-02T02:02:14.710Z,16.21
2016-07-02T02:03:14.723Z,16.25
2016-07-02T02:04:14.732Z,16.29
2016-07-02T02:05:14.553Z,16.25
2016-07-02T02:06:15.088Z,16.34
2016-07-02T02:07:14.826Z,16.29
2016-07-02T02:08:14.726Z,16.26
2016-07-02T02:09:15.593Z,16.33
2016-07-02T02:10:14.507Z,16.32
2016-07-02T02:11:15.177Z,16.32
2016-07-02T02:12:14.682Z,16.49
2016-07-02T02:13:15.581Z,16.51
2016-07-02T02:14:15.297Z,16.47
2016-07-02T02:15:14.466Z,16.48
2016-07-02T02:16:14.555Z,16.52
2016-07-02T02:17:14.557Z,16.58
2016-07-02T02:18:14.519Z,16.67
2016-07-02T02:19:14.659Z,16.65
2016-07-02T02:20:14.787Z,16.76
2016-07-02T02:21:14.922Z,16.81
2016-07-02T02:22:14.935Z,16.82
2016-07-02T02:23:15.463Z,16.92
2016-07-02T02:24:14.675Z,16.87
2016-07-02T02:25:14.874Z,16.97
2016-07-02T02:26:14.898Z,17.03
2016-07-02T02:27:14.882Z,17.07
2016-07-02T02:28:14.768Z,17.02
2016-07-02T02:29:14.751Z,17.07
2016-07-02T02:30:14.856Z,17.06
2016-07-02T02:31:14.867Z,17.1
2016-07-02T02:32:14.874Z,17.12
2016-07-02T02:33:14.879Z,17.2
2016-07-02T02:34:14.726Z,17.22
2016-07-02T02:35:14.918Z,17.2
2016-07-02T02:36:14.717Z,17.21
2016-07-02T02:37:14.686Z,17.13
2016-07-02T02:38:14.732Z,17.24
2016-07-02T02:39:14.820Z,17.25
2016-07-02T02:40:14.753Z,17.24
2016-07-02T02:41:14.852Z,17.27
2016-07-02T02:42:14.464Z,17.27
2016-07-02T02:43:14.791Z,17.38
2016-07-02T02:44:14.451Z,17.27
2016-07-02T02:45:14.631Z,17.3
2016-07-02T02:46:15.973Z,17.43
2016-07-02T02:47:14.504Z,17.4
2016-07-02T02:48:14.443Z,17.42
2016-07-02T02:49:14.735Z,17.32
2016-07-02T02:50:14.547Z,17.21
2016-07-02T02:51:14.664Z,17.27
2016-07-02T02:52:14.623Z,17.28
2016-07-02T02:53:14.531Z,17.28
2016-07-02T02:54:14.464Z,17.24
2016-07-02T02:55:14.794Z,17.28
2016-07-02T02:56:14.560Z,17.3
2016-07-02T02:57:14.631Z,17.25
2016-07-02T02:58:14.795Z,17.25
2016-07-02T02:59:14.786Z,17.22
2016-07-02T03:00:14.632Z,17.21
2016-07-02T03:01:14.692Z,17.27
2016-07-02T03:02:14.406Z,17.2
2016-07-02T03:03:14.353Z,17.27
2016-07-02T03:04:14.362Z,17.22
2016-07-02T03:05:14.614Z,17.27
2016-07-02T03:06:14.596Z,17.24
2016-07-02T03:07:14.628Z,17.22
2016-07-02T03:08:14.427Z,17.24
2016-07-02T03:09:14.602Z,17.13
2016-07-02T03:10:14.387Z,17.06
2016-07-02T03:11:14.733Z,17.05
2016-07-02T03:12:15.201Z,17.03
2016-07-02T03:13:14.600Z,16.95
2016-07-02T03:14:14.585Z,16.99
2016-07-02T03:15:14.571Z,16.91
2016-07-02T03:16:14.633Z,16.9
2016-07-02T03:17:14.534Z,16.91
2016-07-02T03:18:14.360Z,16.87
2016-07-02T03:19:14.568Z,16.85
2016-07-02T03:20:14.370Z,16.87
2016-07-02T03:21:14.586Z,16.91
2016-07-02T03:22:14.529Z,16.87
2016-07-02T03:23:14.610Z,16.92
2016-07-02T03:24:14.651Z,16.91
2016-07-02T03:25:14.500Z,16.85
2016-07-02T03:26:14.377Z,16.91
2016-07-02T03:27:14.361Z,16.85
2016-07-02T03:28:14.354Z,16.87
2016-07-02T03:29:14.622Z,16.85
2016-07-02T03:30:14.536Z,16.88
2016-07-02T03:31:14.526Z,16.9
2016-07-02T03:32:14.622Z,16.94
2016-07-02T03:33:14.617Z,16.97
2016-07-02T03:34:14.350Z,16.99
2016-07-02T03:35:14.381Z,16.97
2016-07-02T03:36:14.718Z,17.06
2016-07-02T03:37:15.350Z,17
2016-07-02T03:38:14.352Z,16.92
2016-07-02T03:39:14.338Z,17.02
2016-07-02T03:40:14.515Z,17.03
2016-07-02T03:41:14.350Z,17.09
2016-07-02T03:42:14.365Z,17.02
2016-07-02T03:43:14.277Z,17.09
2016-07-02T03:44:14.726Z,17.07
2016-07-02T03:45:14.528Z,17.05
2016-07-02T03:46:14.504Z,17.07
2016-07-02T03:47:14.407Z,17.12
2016-07-02T03:48:14.345Z,17.05
2016-07-02T03:49:14.322Z,17.03
2016-07-02T03:50:14.652Z,17.03
2016-07-02T03:51:14.725Z,17.05
2016-07-02T03:52:14.409Z,17.03
2016-07-02T03:53:14.400Z,17.06
2016-07-02T03:54:14.611Z,17.07
2016-07-02T03:55:14.582Z,17.09
2016-07-02T03:56:14.626Z,17.13
2016-07-02T03:57:14.454Z,17.17
2016-07-02T03:58:14.918Z,17.17
2016-07-02T03:59:14.305Z,17.25
2016-07-02T04:00:14.302Z,17.22
2016-07-02T04:01:14.624Z,17.18
2016-07-02T04:02:14.352Z,17.22
2016-07-02T04:03:14.686Z,17.22
2016-07-02T04:04:14.618Z,17.25
2016-07-02T04:05:14.293Z,17.25
2016-07-02T04:06:14.287Z,17.39
2016-07-02T04:07:14.310Z,17.43
2016-07-02T04:08:14.313Z,17.32
2016-07-02T04:09:14.304Z,17.45
2016-07-02T04:10:15.155Z,17.43
2016-07-02T04:11:14.283Z,17.45
2016-07-02T04:12:14.223Z,17.55
2016-07-02T04:13:14.270Z,17.54
2016-07-02T04:14:14.307Z,17.5
2016-07-02T04:15:14.600Z,17.55
2016-07-02T04:16:14.525Z,17.62
2016-07-02T04:17:14.307Z,17.55
2016-07-02T04:18:14.560Z,17.63
2016-07-02T04:19:14.592Z,17.65
2016-07-02T04:20:14.336Z,17.65
2016-07-02T04:21:14.594Z,17.65
2016-07-02T04:22:14.666Z,17.65
2016-07-02T04:23:14.255Z,17.66
2016-07-02T04:24:14.276Z,17.65
2016-07-02T04:25:14.254Z,17.66
2016-07-02T04:26:14.431Z,17.65
2016-07-02T04:27:14.616Z,17.71
2016-07-02T04:28:14.318Z,17.68
2016-07-02T04:29:14.311Z,17.65
2016-07-02T04:30:14.375Z,17.71
2016-07-02T04:31:14.361Z,17.65
2016-07-02T04:32:14.430Z,17.68
2016-07-02T04:33:14.235Z,17.71
2016-07-02T04:34:14.404Z,17.71
2016-07-02T04:35:14.166Z,17.71
2016-07-02T04:36:14.250Z,17.73
2016-07-02T04:37:14.377Z,17.66
2016-07-02T04:38:14.398Z,17.68
2016-07-02T04:39:14.361Z,17.69
2016-07-02T04:40:14.384Z,17.63
2016-07-02T04:41:14.501Z,17.6
2016-07-02T04:42:14.411Z,17.65
2016-07-02T04:43:14.241Z,17.66
2016-07-02T04:44:14.247Z,17.63
2016-07-02T04:45:14.201Z,17.62
2016-07-02T04:46:14.416Z,17.73
2016-07-02T04:47:14.392Z,17.76
2016-07-02T04:48:14.219Z,17.8
2016-07-02T04:49:14.152Z,17.8
2016-07-02T04:50:14.347Z,17.76
2016-07-02T04:51:14.610Z,17.83
2016-07-02T04:52:14.293Z,17.86
2016-07-02T04:53:14.317Z,17.87
2016-07-02T04:54:14.415Z,17.88
2016-07-02T04:55:14.364Z,17.92
2016-07-02T04:56:14.204Z,17.96
2016-07-02T04:57:14.346Z,18.01
2016-07-02T04:58:14.134Z,18.01
2016-07-02T04:59:14.329Z,18.08
2016-07-02T05:00:14.347Z,18.1
2016-07-02T05:01:14.240Z,18.17
2016-07-02T05:02:14.833Z,18.17
2016-07-02T05:03:14.228Z,18.29
2016-07-02T05:04:14.304Z,18.21
2016-07-02T05:05:14.356Z,18.24
2016-07-02T05:06:14.255Z,18.32
2016-07-02T05:07:14.433Z,18.35
2016-07-02T05:08:14.324Z,18.32
2016-07-02T05:09:14.115Z,18.32
2016-07-02T05:10:14.209Z,18.31
2016-07-02T05:11:14.198Z,18.34
2016-07-02T05:12:14.199Z,18.32
2016-07-02T05:13:14.548Z,18.36
2016-07-02T05:14:14.257Z,18.42
2016-07-02T05:15:14.163Z,18.36
2016-07-02T05:16:14.578Z,18.42
2016-07-02T05:17:14.173Z,18.49
2016-07-02T05:18:14.195Z,18.47
2016-07-02T05:19:14.111Z,18.53
2016-07-02T05:20:14.313Z,18.49
2016-07-02T05:21:14.107Z,18.65
2016-07-02T05:22:14.168Z,18.68
2016-07-02T05:23:14.338Z,18.68
2016-07-02T05:24:14.388Z,18.63
2016-07-02T05:25:14.345Z,18.76
2016-07-02T05:26:14.335Z,18.68
2016-07-02T05:27:14.364Z,18.76
2016-07-02T05:28:14.599Z,18.89
2016-07-02T05:29:14.577Z,18.91
2016-07-02T05:30:14.333Z,18.91
2016-07-02T05:31:14.328Z,19.07
2016-07-02T05:32:14.932Z,19.13
2016-07-02T05:33:14.369Z,19.17
2016-07-02T05:34:14.372Z,19.2
2016-07-02T05:35:14.952Z,19.35
2016-07-02T05:36:14.322Z,19.49
2016-07-02T05:37:14.280Z,19.46
2016-07-02T05:38:14.160Z,19.63
2016-07-02T05:39:14.307Z,19.63
2016-07-02T05:40:14.223Z,19.74
2016-07-02T05:41:14.562Z,19.78
2016-07-02T05:42:14.324Z,19.89
2016-07-02T05:43:14.285Z,19.87
2016-07-02T05:44:14.176Z,19.98
2016-07-02T05:45:14.161Z,20.02
2016-07-02T05:46:14.140Z,20.07
2016-07-02T05:47:14.146Z,20.16
2016-07-02T05:48:14.171Z,20.22
2016-07-02T05:49:14.167Z,20.22
2016-07-02T05:50:14.166Z,20.26
2016-07-02T05:51:14.344Z,20.42
2016-07-02T05:52:14.370Z,20.48
2016-07-02T05:53:15.769Z,20.57
2016-07-02T05:54:14.403Z,20.71
2016-07-02T05:55:14.555Z,20.67
2016-07-02T05:56:14.396Z,20.68
2016-07-02T05:57:14.351Z,20.74
2016-07-02T05:58:14.419Z,20.82
2016-07-02T05:59:14.320Z,20.79
2016-07-02T06:00:14.394Z,20.91
2016-07-02T06:01:14.326Z,21
2016-07-02T06:02:14.174Z,21.01
2016-07-02T06:03:14.155Z,21.12
2016-07-02T06:04:14.169Z,21.11
2016-07-02T06:05:14.296Z,21.19
2016-07-02T06:06:14.313Z,21.21
2016-07-02T06:07:14.594Z,21.28
2016-07-02T06:08:14.412Z,21.28
2016-07-02T06:09:14.368Z,21.34
2016-07-02T06:10:14.172Z,21.41
2016-07-02T06:11:14.177Z,21.46
2016-07-02T06:12:14.291Z,21.62
2016-07-02T06:13:14.301Z,21.89
2016-07-02T06:14:14.310Z,21.92
2016-07-02T06:15:14.349Z,21.85
2016-07-02T06:16:14.332Z,22.05
2016-07-02T06:17:14.345Z,22.09
2016-07-02T06:18:14.326Z,22.05
2016-07-02T06:19:14.321Z,22.26
2016-07-02T06:20:14.333Z,22.23
2016-07-02T06:21:14.313Z,22.3
2016-07-02T06:22:14.261Z,22.36
2016-07-02T06:23:14.188Z,22.33
2016-07-02T06:24:14.195Z,22.45
2016-07-02T06:25:14.189Z,22.36
2016-07-02T06:26:14.336Z,22.39
2016-07-02T06:27:14.184Z,22.34
2016-07-02T06:28:14.300Z,22.3
2016-07-02T06:29:14.245Z,22.36
2016-07-02T06:30:14.284Z,22.34
2016-07-02T06:31:14.195Z,22.34
2016-07-02T06:32:14.168Z,22.46
2016-07-02T06:33:14.320Z,22.29
2016-07-02T06:34:14.200Z,22.31
2016-07-02T06:35:14.142Z,22.29
2016-07-02T06:36:14.213Z,22.22
2016-07-02T06:37:14.413Z,22.24
2016-07-02T06:38:14.189Z,22.14
2016-07-02T06:39:14.219Z,22.02
2016-07-02T06:40:14.409Z,21.96
2016-07-02T06:41:14.469Z,21.93
2016-07-02T06:42:14.272Z,21.92
2016-07-02T06:43:14.361Z,21.78
2016-07-02T06:44:14.257Z,21.8
2016-07-02T06:45:14.215Z,21.82
2016-07-02T06:46:14.571Z,21.93
2016-07-02T06:47:14.383Z,22.02
2016-07-02T06:48:14.275Z,22.09
2016-07-02T06:49:14.488Z,22.11
2016-07-02T06:50:14.147Z,22.15
2016-07-02T06:51:14.162Z,22.16
2016-07-02T06:52:14.135Z,22.08
2016-07-02T06:53:14.135Z,22.07
2016-07-02T06:54:14.878Z,22.08
2016-07-02T06:55:14.585Z,22.07
2016-07-02T06:56:14.205Z,22.16
2016-07-02T06:57:14.208Z,22.26
2016-07-02T06:58:14.143Z,22.34
2016-07-02T06:59:14.240Z,22.51
2016-07-02T07:00:14.204Z,23.03
2016-07-02T07:01:14.158Z,23.42
2016-07-02T07:02:14.279Z,23.78
2016-07-02T07:03:14.177Z,24.03
2016-07-02T07:04:14.356Z,24.33
2016-07-02T07:05:14.376Z,24.77
2016-07-02T07:06:14.422Z,25.15
2016-07-02T07:07:14.334Z,25.24
2016-07-02T07:08:14.289Z,25.44
2016-07-02T07:09:14.252Z,25.44
2016-07-02T07:10:14.479Z,25.57
2016-07-02T07:11:14.232Z,25.6
2016-07-02T07:12:14.592Z,25.63
2016-07-02T07:13:14.258Z,25.84
2016-07-02T07:14:14.184Z,26.06
2016-07-02T07:15:14.276Z,26.34
2016-07-02T07:16:14.186Z,26.53
2016-07-02T07:17:14.382Z,26.86
2016-07-02T07:18:14.295Z,26.99
2016-07-02T07:19:14.323Z,27.3
2016-07-02T07:20:14.306Z,27.52
2016-07-02T07:21:14.299Z,27.86
2016-07-02T07:22:14.310Z,28.08
2016-07-02T07:23:14.571Z,28.38
2016-07-02T07:24:14.353Z,28.6
2016-07-02T07:25:14.622Z,28.45
2016-07-02T07:26:14.677Z,28.16
2016-07-02T07:27:14.627Z,27.84
2016-07-02T07:28:14.332Z,27.52
2016-07-02T07:29:14.329Z,27.37
2016-07-02T07:30:15.156Z,26.93
2016-07-02T07:31:14.424Z,26.76
2016-07-02T07:32:14.731Z,26.63
2016-07-02T07:33:14.490Z,26.93
2016-07-02T07:34:14.722Z,27.66
2016-07-02T07:35:14.520Z,28.48
2016-07-02T07:36:14.376Z,29.3
2016-07-02T07:37:14.494Z,30.11
2016-07-02T07:38:14.538Z,30.89
2016-07-02T07:39:14.589Z,30.93
2016-07-02T07:40:15.243Z,30.31
2016-07-02T07:41:14.591Z,29.6
2016-07-02T07:42:14.544Z,28.85
2016-07-02T07:43:14.629Z,28.16
2016-07-02T07:44:14.578Z,27.43
2016-07-02T07:45:14.591Z,26.84
2016-07-02T07:46:14.577Z,26.23
2016-07-02T07:47:14.665Z,25.71
2016-07-02T07:48:14.577Z,25.32
2016-07-02T07:49:14.619Z,25.04
2016-07-02T07:50:14.483Z,24.54
2016-07-02T07:51:14.638Z,24.26
2016-07-02T07:52:14.640Z,24
2016-07-02T07:53:14.385Z,23.7
2016-07-02T07:54:14.654Z,23.52
2016-07-02T07:55:14.661Z,23.34
2016-07-02T07:56:14.425Z,23.09
2016-07-02T07:57:14.477Z,23
2016-07-02T07:58:14.485Z,22.73
2016-07-02T07:59:14.488Z,22.54
2016-07-02T08:00:14.506Z,22.39
2016-07-02T08:01:14.854Z,22.31
2016-07-02T08:02:14.742Z,22.29
2016-07-02T08:03:14.739Z,22.23
2016-07-02T08:04:15.343Z,22.07
2016-07-02T08:05:14.528Z,21.93
2016-07-02T08:06:14.864Z,21.89
2016-07-02T08:07:14.805Z,21.89
2016-07-02T08:08:14.532Z,21.77
2016-07-02T08:09:14.525Z,21.62
2016-07-02T08:10:14.561Z,21.55
2016-07-02T08:11:14.535Z,21.62
2016-07-02T08:12:14.539Z,21.52
2016-07-02T08:13:14.727Z,21.41
2016-07-02T08:14:14.920Z,21.38
2016-07-02T08:15:14.889Z,21.34
2016-07-02T08:16:14.818Z,21.27
2016-07-02T08:17:14.870Z,21.25
2016-07-02T08:18:14.518Z,21.18
2016-07-02T08:19:14.556Z,21.18
2016-07-02T08:20:14.695Z,21.19
2016-07-02T08:21:14.911Z,21.27
2016-07-02T08:22:14.734Z,21.33
2016-07-02T08:23:14.701Z,21.38
2016-07-02T08:24:14.736Z,21.49
2016-07-02T08:25:14.812Z,21.67
2016-07-02T08:26:14.614Z,21.62
2016-07-02T08:27:14.599Z,21.78
2016-07-02T08:28:14.496Z,21.93
2016-07-02T08:29:14.718Z,22
2016-07-02T08:30:15.166Z,22
2016-07-02T08:31:14.713Z,21.97
2016-07-02T08:32:14.633Z,22
2016-07-02T08:33:14.717Z,22.04
2016-07-02T08:34:14.740Z,21.89
2016-07-02T08:35:14.715Z,21.89
2016-07-02T08:36:14.582Z,21.71
2016-07-02T08:37:14.573Z,21.59
2016-07-02T08:38:14.738Z,21.52
2016-07-02T08:39:14.737Z,21.46
2016-07-02T08:40:14.794Z,21.51
2016-07-02T08:41:14.863Z,21.56
2016-07-02T08:42:14.849Z,21.58
2016-07-02T08:43:14.640Z,21.77
2016-07-02T08:44:14.597Z,21.97
2016-07-02T08:45:14.594Z,22.05
2016-07-02T08:46:14.594Z,22.08
2016-07-02T08:47:14.507Z,21.94
2016-07-02T08:48:14.596Z,22.04
2016-07-02T08:49:14.563Z,21.97
2016-07-02T08:50:14.757Z,21.93
2016-07-02T08:51:14.787Z,22.02
2016-07-02T08:52:14.763Z,21.93
2016-07-02T08:53:14.574Z,21.9
2016-07-02T08:54:14.711Z,22.02
2016-07-02T08:55:14.534Z,21.93
2016-07-02T08:56:14.617Z,21.96
2016-07-02T08:57:14.587Z,21.92
2016-07-02T08:58:14.749Z,21.77
2016-07-02T08:59:14.567Z,21.71
2016-07-02T09:00:14.812Z,21.49
2016-07-02T09:01:14.527Z,21.36
2016-07-02T09:02:15.757Z,21.22
2016-07-02T09:03:14.754Z,21.22
2016-07-02T09:04:14.666Z,21.01
2016-07-02T09:05:14.584Z,21.04
2016-07-02T09:06:14.750Z,20.86
2016-07-02T09:07:14.761Z,20.93
2016-07-02T09:08:14.760Z,20.86
2016-07-02T09:09:14.599Z,20.81
2016-07-02T09:10:14.850Z,20.68
2016-07-02T09:11:14.764Z,20.58
2016-07-02T09:12:14.587Z,20.57
2016-07-02T09:13:14.772Z,20.51
2016-07-02T09:14:14.713Z,20.44
2016-07-02T09:15:14.876Z,20.34
2016-07-02T09:16:14.602Z,20.25
2016-07-02T09:17:14.774Z,20.27
2016-07-02T09:18:14.768Z,20.16
2016-07-02T09:19:14.610Z,20.04
2016-07-02T09:20:14.734Z,20.08
2016-07-02T09:21:14.672Z,20.02
2016-07-02T09:22:14.648Z,20.1
2016-07-02T09:23:14.548Z,20.02
2016-07-02T09:24:15.262Z,20.01
2016-07-02T09:25:14.664Z,20.18
2016-07-02T09:26:14.794Z,20.29
2016-07-02T09:27:14.816Z,20.34
2016-07-02T09:28:14.802Z,20.42
2016-07-02T09:29:14.601Z,20.58
2016-07-02T09:30:14.845Z,20.66
2016-07-02T09:31:14.553Z,20.72
2016-07-02T09:32:14.674Z,20.68
2016-07-02T09:33:14.606Z,20.67
2016-07-02T09:34:14.668Z,20.61
2016-07-02T09:35:14.653Z,20.51
2016-07-02T09:36:14.652Z,20.42
2016-07-02T09:37:14.650Z,20.44
2016-07-02T09:38:14.666Z,20.41
2016-07-02T09:39:14.649Z,20.41
2016-07-02T09:40:14.654Z,20.51
2016-07-02T09:41:14.663Z,20.41
2016-07-02T09:42:14.656Z,20.35
2016-07-02T09:43:14.677Z,20.3
2016-07-02T09:44:14.715Z,20.25
2016-07-02T09:45:14.908Z,20.38
2016-07-02T09:46:14.802Z,20.48
2016-07-02T09:47:14.723Z,20.61
2016-07-02T09:48:14.623Z,20.67
2016-07-02T09:49:14.700Z,20.86
2016-07-02T09:50:14.805Z,20.97
2016-07-02T09:51:14.825Z,21.03
2016-07-02T09:52:14.801Z,21.16
2016-07-02T09:53:14.714Z,21.16
2016-07-02T09:54:14.698Z,21.16
2016-07-02T09:55:14.711Z,21.19
2016-07-02T09:56:14.719Z,21.13
2016-07-02T09:57:14.820Z,21.04
2016-07-02T09:58:14.775Z,21.04
2016-07-02T09:59:14.665Z,20.86
2016-07-02T10:00:14.731Z,20.81
2016-07-02T10:01:14.833Z,20.74
2016-07-02T10:02:14.667Z,20.74
2016-07-02T10:03:14.676Z,20.72
2016-07-02T10:04:14.667Z,20.79
2016-07-02T10:05:14.665Z,20.83
2016-07-02T10:06:14.758Z,20.85
2016-07-02T10:07:14.815Z,20.79
2016-07-02T10:08:14.832Z,20.79
2016-07-02T10:09:14.672Z,20.72
2016-07-02T10:10:14.720Z,20.72
2016-07-02T10:11:14.806Z,20.68
2016-07-02T10:12:14.648Z,20.61
2016-07-02T10:13:14.675Z,20.51
2016-07-02T10:14:14.702Z,20.51
2016-07-02T10:15:14.898Z,20.29
2016-07-02T10:16:14.840Z,20.3
2016-07-02T10:17:14.819Z,20.16
2016-07-02T10:18:14.676Z,20.02
2016-07-02T10:19:14.797Z,20.04
2016-07-02T10:20:14.699Z,19.95
2016-07-02T10:21:14.799Z,19.98
2016-07-02T10:22:14.837Z,19.83
2016-07-02T10:23:14.778Z,19.75
2016-07-02T10:24:14.841Z,19.67
2016-07-02T10:25:14.916Z,19.64
2016-07-02T10:26:14.712Z,19.55
2016-07-02T10:27:14.823Z,19.52
2016-07-02T10:28:14.688Z,19.49
2016-07-02T10:29:14.688Z,19.55
2016-07-02T10:30:14.701Z,19.46
2016-07-02T10:31:14.786Z,19.5
2016-07-02T10:32:14.793Z,19.5
2016-07-02T10:33:14.680Z,19.49
2016-07-02T10:34:14.718Z,19.49
2016-07-02T10:35:14.939Z,19.53
2016-07-02T10:36:14.820Z,19.57
2016-07-02T10:37:14.600Z,19.55
2016-07-02T10:38:14.726Z,19.65
2016-07-02T10:39:14.688Z,19.6
2016-07-02T10:40:14.636Z,19.63
2016-07-02T10:41:14.720Z,19.6
2016-07-02T10:42:14.829Z,19.55
2016-07-02T10:43:14.874Z,19.56
2016-07-02T10:44:14.838Z,19.56
2016-07-02T10:45:14.789Z,19.5
2016-07-02T10:46:14.866Z,19.5
2016-07-02T10:47:14.835Z,19.65
2016-07-02T10:48:14.820Z,19.64
2016-07-02T10:49:15.445Z,19.68
2016-07-02T10:50:14.767Z,19.82
2016-07-02T10:51:14.860Z,19.87
2016-07-02T10:52:14.656Z,19.9
2016-07-02T10:53:14.836Z,19.98
2016-07-02T10:54:14.643Z,20.07
2016-07-02T10:55:14.841Z,20.23
2016-07-02T10:56:14.768Z,20.35
2016-07-02T10:57:14.878Z,20.53
2016-07-02T10:58:14.781Z,20.61
2016-07-02T10:59:14.914Z,20.71
2016-07-02T11:00:14.818Z,20.83
2016-07-02T11:01:14.720Z,20.93
2016-07-02T11:02:14.794Z,20.97
2016-07-02T11:03:14.683Z,20.97
2016-07-02T11:04:14.813Z,20.98
2016-07-02T11:05:14.842Z,21.09
2016-07-02T11:06:14.835Z,21.18
2016-07-02T11:07:14.848Z,21.19
2016-07-02T11:08:14.932Z,21.36
2016-07-02T11:09:14.849Z,21.45
2016-07-02T11:10:14.834Z,21.74
2016-07-02T11:11:14.833Z,22
2016-07-02T11:12:14.865Z,22.16
2016-07-02T11:13:14.879Z,22.41
2016-07-02T11:14:14.730Z,22.49
2016-07-02T11:15:14.691Z,22.71
2016-07-02T11:16:14.828Z,22.94
2016-07-02T11:17:14.878Z,23.14
2016-07-02T11:18:14.967Z,23.32
2016-07-02T11:19:14.950Z,23.42
2016-07-02T11:20:14.700Z,23.45
2016-07-02T11:21:14.731Z,23.44
2016-07-02T11:22:14.866Z,23.4
2016-07-02T11:23:14.880Z,23.38
2016-07-02T11:24:14.954Z,23.25
2016-07-02T11:25:14.722Z,23.22
2016-07-02T11:26:14.623Z,23.14
2016-07-02T11:27:14.884Z,23.1
2016-07-02T11:28:14.796Z,23.03
2016-07-02T11:29:14.860Z,22.96
2016-07-02T11:30:14.730Z,23.03
2016-07-02T11:31:14.883Z,22.89
2016-07-02T11:32:14.719Z,22.97
2016-07-02T11:33:15.650Z,22.84
2016-07-02T11:34:14.653Z,22.86
2016-07-02T11:35:14.737Z,22.88
2016-07-02T11:36:14.791Z,22.85
2016-07-02T11:37:14.908Z,22.91
2016-07-02T11:38:14.752Z,22.96
2016-07-02T11:39:14.969Z,23.01
2016-07-02T11:40:14.709Z,23.01
2016-07-02T11:41:14.917Z,22.94
2016-07-02T11:42:15.365Z,22.81
2016-07-02T11:43:14.899Z,22.88
2016-07-02T11:44:14.954Z,22.92
2016-07-02T11:45:15.045Z,23.03
2016-07-02T11:46:14.989Z,23.04
2016-07-02T11:47:14.773Z,23.06
2016-07-02T11:48:14.803Z,23
2016-07-02T11:49:14.923Z,22.99
2016-07-02T11:50:14.742Z,22.84
2016-07-02T11:51:14.760Z,22.86
2016-07-02T11:52:14.963Z,22.76
2016-07-02T11:53:14.808Z,22.69
2016-07-02T11:54:15.842Z,22.49
2016-07-02T11:55:14.833Z,22.33
2016-07-02T11:56:14.946Z,22.24
2016-07-02T11:57:14.881Z,22.18
2016-07-02T11:58:14.985Z,22.15
2016-07-02T11:59:14.950Z,22.07
2016-07-02T12:00:14.970Z,21.93
2016-07-02T12:01:15.424Z,21.89
2016-07-02T12:02:14.776Z,21.67
2016-07-02T12:03:14.962Z,21.51
2016-07-02T12:04:14.872Z,21.43
2016-07-02T12:05:15.041Z,21.36
2016-07-02T12:06:29.684Z,21.22
2016-07-02T12:07:15.339Z,21.19
2016-07-02T12:08:15.400Z,21.08
2016-07-02T12:09:14.981Z,21.03
2016-07-02T12:10:15.005Z,20.82
2016-07-02T12:11:15.028Z,20.78
2016-07-02T12:12:14.735Z,20.61
2016-07-02T12:13:14.820Z,20.51
2016-07-02T12:14:14.833Z,20.37
2016-07-02T12:15:14.852Z,20.29
2016-07-02T12:16:14.811Z,20.18
2016-07-02T12:17:14.803Z,20.05
2016-07-02T12:18:14.981Z,20.04
2016-07-02T12:19:14.833Z,19.82
2016-07-02T12:20:14.818Z,19.74
2016-07-02T12:21:14.986Z,19.65
2016-07-02T12:22:14.876Z,19.67
2016-07-02T12:23:15.249Z,19.72
2016-07-02T12:24:15.054Z,19.71
2016-07-02T12:25:14.981Z,19.71
2016-07-02T12:26:14.974Z,19.78
2016-07-02T12:27:14.839Z,19.82
2016-07-02T12:28:14.853Z,19.98
2016-07-02T12:29:14.837Z,19.97
2016-07-02T12:30:14.940Z,19.98
2016-07-02T12:31:14.943Z,19.95
2016-07-02T12:32:14.845Z,19.82
2016-07-02T12:33:14.853Z,19.83
2016-07-02T12:34:14.872Z,19.83
2016-07-02T12:35:14.841Z,19.83
2016-07-02T12:36:14.834Z,19.7
2016-07-02T12:37:14.752Z,19.68
2016-07-02T12:38:14.847Z,19.55
2016-07-02T12:39:14.898Z,19.57
2016-07-02T12:40:15.638Z,19.5
2016-07-02T12:41:14.822Z,19.46
2016-07-02T12:42:14.834Z,19.38
2016-07-02T12:43:15.124Z,19.37
2016-07-02T12:44:14.889Z,19.24
2016-07-02T12:45:15.072Z,19.19
2016-07-02T12:46:14.950Z,19.23
2016-07-02T12:47:14.874Z,19.16
2016-07-02T12:48:14.881Z,19.17
2016-07-02T12:49:29.716Z,19.17
2016-07-02T12:50:14.846Z,19.13
2016-07-02T12:51:15.031Z,19.05
2016-07-02T12:52:14.929Z,19.05
2016-07-02T12:53:15.044Z,19.09
2016-07-02T12:54:15.004Z,18.91
2016-07-02T12:55:14.872Z,18.91